Terminal Aerodrome Forecast
Issued by NWS Knoxville/Tri Cities, TN

Home | Current Version | Previous Version | Text Only | Print | Product List | Glossary On
Versions: 1 2 3 4 5 6 7 8 9 10 11 12 13 14 15 16 17 18 19 20 21 22 23 24 25 26 27 28 29 30
000
FTUS44 KMRX 221129
TAFTYS
TAF
KTYS 221129Z 2212/2312 24007KT P6SM SCT050 SCT250
     FM222100 24005KT P6SM VCTS BKN040CB OVC100
     FM230500 VRB03KT 5SM BR FEW045 SCT250=

USA.gov is the U.S. government's official web portal to all federal, state and local government web resources and services.